createdAt,value
2023-04-16T00:01:51.728Z,18.38
2023-04-16T00:04:19.642Z,20.23
2023-04-16T00:06:47.256Z,16.08
2023-04-16T00:09:14.823Z,16.27
2023-04-16T00:11:42.326Z,14.95
2023-04-16T00:14:09.834Z,16.20
2023-04-16T00:16:38.466Z,13.52
2023-04-16T00:19:06.187Z,14.30
2023-04-16T00:21:33.802Z,15.02
2023-04-16T00:24:01.355Z,16.90
2023-04-16T00:26:28.864Z,14.15
2023-04-16T00:28:56.543Z,16.23
2023-04-16T00:31:31.951Z,13.70
2023-04-16T00:34:00.387Z,15.93
2023-04-16T00:36:28.691Z,16.40
2023-04-16T00:38:57.176Z,18.35
2023-04-16T00:41:24.704Z,18.48
2023-04-16T00:43:52.370Z,19.40
2023-04-16T00:46:22.082Z,20.90
2023-04-16T00:48:51.593Z,23.70
2023-04-16T00:51:20.574Z,23.48
2023-04-16T00:53:48.419Z,25.98
2023-04-16T00:56:17.615Z,25.55
2023-04-16T00:58:45.557Z,26.95
2023-04-16T01:01:14.567Z,27.50
2023-04-16T01:03:47.424Z,26.90
2023-04-16T01:06:16.709Z,26.85
2023-04-16T01:08:44.871Z,27.45
2023-04-16T01:11:14.013Z,25.88
2023-04-16T01:13:42.102Z,27.42
2023-04-16T01:16:11.290Z,26.65
2023-04-16T01:18:39.129Z,25.83
2023-04-16T01:21:07.060Z,23.48
2023-04-16T01:23:34.561Z,21.85
2023-04-16T01:26:03.265Z,22.10
2023-04-16T01:28:31.011Z,21.75
2023-04-16T01:30:58.613Z,20.50
2023-04-16T01:33:49.197Z,19.13
2023-04-16T01:36:16.784Z,20.80
2023-04-16T01:38:46.342Z,23.42
2023-04-16T01:41:13.917Z,23.40
2023-04-16T01:43:42.565Z,24.67
2023-04-16T01:46:18.088Z,22.52
2023-04-16T01:48:45.824Z,20.33
2023-04-16T01:51:13.516Z,20.70
2023-04-16T01:53:41.141Z,22.60
2023-04-16T01:56:08.796Z,21.30
2023-04-16T01:58:36.600Z,22.52
2023-04-16T02:01:05.846Z,19.27
2023-04-16T02:03:34.068Z,19.88
2023-04-16T02:06:01.793Z,18.75
2023-04-16T02:08:29.738Z,18.45
2023-04-16T02:10:57.953Z,19.23
2023-04-16T02:13:26.413Z,20.70
2023-04-16T02:15:54.263Z,19.05
2023-04-16T02:18:32.608Z,15.95
2023-04-16T02:21:00.557Z,16.45
2023-04-16T02:23:28.409Z,15.10
2023-04-16T02:25:58.538Z,14.95
2023-04-16T02:28:26.471Z,12.32
2023-04-16T02:30:54.399Z,13.13
2023-04-16T02:33:22.657Z,13.52
2023-04-16T02:35:57.462Z,14.05
2023-04-16T02:38:25.687Z,13.40
2023-04-16T02:40:53.130Z,12.75
2023-04-16T02:43:20.685Z,12.82
2023-04-16T02:45:48.325Z,14.13
2023-04-16T02:48:16.025Z,14.45
2023-04-16T02:50:43.664Z,14.73
2023-04-16T02:53:11.599Z,14.70
2023-04-16T02:55:39.196Z,16.30
2023-04-16T02:58:06.851Z,17.67
2023-04-16T03:00:34.406Z,17.70
2023-04-16T03:03:02.171Z,19.02
2023-04-16T03:05:30.025Z,16.92
2023-04-16T03:07:57.574Z,16.63
2023-04-16T03:10:25.081Z,17.20
2023-04-16T03:12:52.604Z,17.10
2023-04-16T03:15:20.345Z,17.65
2023-04-16T03:17:47.915Z,17.95
2023-04-16T03:20:17.070Z,18.35
2023-04-16T03:22:44.747Z,19.13
2023-04-16T03:25:13.965Z,18.33
2023-04-16T03:27:41.722Z,19.27
2023-04-16T03:30:14.027Z,17.80
2023-04-16T03:32:42.018Z,19.10
2023-04-16T03:35:10.946Z,18.35
2023-04-16T03:37:38.536Z,20.23
2023-04-16T03:40:07.216Z,20.08
2023-04-16T03:42:35.172Z,20.52
2023-04-16T03:45:03.972Z,20.65
2023-04-16T03:47:32.740Z,19.75
2023-04-16T03:50:03.314Z,19.77
2023-04-16T03:52:31.467Z,20.95
2023-04-16T03:54:59.075Z,21.63
2023-04-16T03:57:28.906Z,21.23
2023-04-16T04:00:02.035Z,21.83
2023-04-16T04:02:42.006Z,20.55
2023-04-16T04:05:16.995Z,20.50
2023-04-16T04:07:46.036Z,21.52
2023-04-16T04:10:15.680Z,20.85
2023-04-16T04:12:44.281Z,20.65
2023-04-16T04:15:12.291Z,20.02
2023-04-16T04:17:39.893Z,21.20
2023-04-16T04:20:07.902Z,20.45
2023-04-16T04:22:37.270Z,20.98
2023-04-16T04:25:05.069Z,20.75
2023-04-16T04:27:33.739Z,21.77
2023-04-16T04:30:01.481Z,22.58
2023-04-16T04:32:29.729Z,21.73
2023-04-16T04:34:57.640Z,22.55
2023-04-16T04:37:25.197Z,21.92
2023-04-16T04:39:52.818Z,23.67
2023-04-16T04:42:21.478Z,22.20
2023-04-16T04:44:49.329Z,21.23
2023-04-16T04:47:17.004Z,23.17
2023-04-16T04:49:44.526Z,23.08
2023-04-16T04:52:12.200Z,23.92
2023-04-16T04:54:41.728Z,22.65
2023-04-16T04:57:09.390Z,23.75
2023-04-16T04:59:37.058Z,22.00
2023-04-16T05:02:04.912Z,25.45
2023-04-16T05:04:32.614Z,23.35
2023-04-16T05:07:00.268Z,23.48
2023-04-16T05:09:27.803Z,23.70
2023-04-16T05:11:55.337Z,22.58
2023-04-16T05:14:23.025Z,24.00
2023-04-16T05:16:50.692Z,25.13
2023-04-16T05:19:18.211Z,25.35
2023-04-16T05:21:45.741Z,25.00
2023-04-16T05:24:14.981Z,23.85
2023-04-16T05:26:42.716Z,23.42
2023-04-16T05:29:10.666Z,25.30
2023-04-16T05:31:38.748Z,24.70
2023-04-16T05:34:06.275Z,25.25
2023-04-16T05:36:33.875Z,25.33
2023-04-16T05:39:01.352Z,24.13
2023-04-16T05:41:28.989Z,24.35
2023-04-16T05:43:56.539Z,24.23
2023-04-16T05:46:24.092Z,24.80
2023-04-16T05:48:51.919Z,23.83
2023-04-16T05:51:20.099Z,24.63
2023-04-16T05:53:47.598Z,23.45
2023-04-16T05:56:15.415Z,24.83
2023-04-16T05:58:42.929Z,22.75
2023-04-16T06:01:11.304Z,23.33
2023-04-16T06:03:39.014Z,25.27
2023-04-16T06:06:08.859Z,23.58
2023-04-16T06:08:36.399Z,22.92
2023-04-16T06:11:04.165Z,24.00
2023-04-16T06:13:31.794Z,25.05
2023-04-16T06:15:59.356Z,23.08
2023-04-16T06:18:26.904Z,23.58
2023-04-16T06:20:54.631Z,23.33
2023-04-16T06:23:23.308Z,22.55
2023-04-16T06:25:51.071Z,21.58
2023-04-16T06:28:18.684Z,16.75
2023-04-16T06:30:47.282Z,15.60
2023-04-16T06:33:14.897Z,13.75
2023-04-16T06:35:42.577Z,8.05
2023-04-16T06:38:10.146Z,9.77
2023-04-16T06:40:37.737Z,9.90
2023-04-16T06:43:05.986Z,12.05
2023-04-16T06:45:33.625Z,12.02
2023-04-16T06:48:01.612Z,12.32
2023-04-16T06:50:29.416Z,8.00
2023-04-16T06:52:57.402Z,8.43
2023-04-16T06:55:24.889Z,5.15
2023-04-16T06:57:52.594Z,5.40
2023-04-16T07:00:20.167Z,4.13
2023-04-16T07:02:48.381Z,3.80
2023-04-16T07:05:16.375Z,3.83
2023-04-16T07:07:43.978Z,3.20
2023-04-16T07:10:11.638Z,3.28
2023-04-16T07:12:39.460Z,3.20
2023-04-16T07:15:07.727Z,3.35
2023-04-16T07:17:35.296Z,4.13
2023-04-16T07:20:02.871Z,3.90
2023-04-16T07:22:30.614Z,3.17
2023-04-16T07:24:58.127Z,3.33
2023-04-16T07:27:25.823Z,4.10
2023-04-16T07:29:54.788Z,4.22
2023-04-16T07:32:22.761Z,3.80
2023-04-16T07:34:50.547Z,3.38
2023-04-16T07:37:18.048Z,3.25
2023-04-16T07:39:45.870Z,3.17
2023-04-16T07:42:14.108Z,3.63
2023-04-16T07:44:41.755Z,3.05
2023-04-16T07:47:09.263Z,2.47
2023-04-16T07:49:36.860Z,2.53
2023-04-16T07:52:04.376Z,1.90
2023-04-16T07:54:32.092Z,1.80
2023-04-16T07:56:59.707Z,2.08
2023-04-16T07:59:27.799Z,1.85
2023-04-16T08:01:55.528Z,1.40
2023-04-16T08:04:25.667Z,1.30
2023-04-16T08:06:54.382Z,1.42
2023-04-16T08:09:23.886Z,1.38
2023-04-16T08:11:51.579Z,3.15
2023-04-16T08:14:19.206Z,1.77
2023-04-16T08:16:47.194Z,1.50
2023-04-16T08:19:14.729Z,1.52
2023-04-16T08:21:42.370Z,1.67
2023-04-16T08:24:10.015Z,2.05
2023-04-16T08:26:37.694Z,1.42
2023-04-16T08:29:05.330Z,1.40
2023-04-16T08:31:33.268Z,1.60
2023-04-16T08:34:01.467Z,1.35
2023-04-16T08:36:29.597Z,1.55
2023-04-16T08:38:57.142Z,1.83
2023-04-16T08:41:26.741Z,1.48
2023-04-16T08:43:56.849Z,1.38
2023-04-16T08:46:26.795Z,1.60
2023-04-16T08:48:57.850Z,1.95
2023-04-16T08:51:29.541Z,2.03
2023-04-16T08:54:03.364Z,1.73
2023-04-16T08:56:36.802Z,1.75
2023-04-16T08:59:07.419Z,2.10
2023-04-16T09:01:40.055Z,1.77
2023-04-16T09:04:09.800Z,2.00
2023-04-16T09:06:39.213Z,1.77
2023-04-16T09:09:09.014Z,1.90
2023-04-16T09:11:39.003Z,1.73
2023-04-16T09:14:09.832Z,1.52
2023-04-16T09:16:37.670Z,2.23
2023-04-16T09:19:05.460Z,1.63
2023-04-16T09:21:33.044Z,2.00
2023-04-16T09:24:01.694Z,2.10
2023-04-16T09:26:29.704Z,2.00
2023-04-16T09:28:57.200Z,1.70
2023-04-16T09:31:24.748Z,1.73
2023-04-16T09:34:07.464Z,2.03
2023-04-16T09:36:36.237Z,2.00
2023-04-16T09:39:04.189Z,2.30
2023-04-16T09:41:36.086Z,1.73
2023-04-16T09:44:05.351Z,1.92
2023-04-16T09:46:45.751Z,2.05
2023-04-16T09:49:18.611Z,2.20
2023-04-16T09:51:49.756Z,2.40
2023-04-16T09:54:17.311Z,1.98
2023-04-16T09:56:46.838Z,1.50
2023-04-16T09:59:21.768Z,1.33
2023-04-16T10:01:53.266Z,1.60
2023-04-16T10:04:26.014Z,1.92
2023-04-16T10:07:05.070Z,1.90
2023-04-16T10:09:40.592Z,1.60
2023-04-16T10:12:08.493Z,1.60
2023-04-16T10:14:36.454Z,2.13
2023-04-16T10:17:06.257Z,1.73
2023-04-16T10:19:35.107Z,2.15
2023-04-16T10:22:03.394Z,1.75
2023-04-16T10:24:33.880Z,1.98
2023-04-16T10:27:01.785Z,1.60
2023-04-16T10:29:30.947Z,2.10
2023-04-16T10:31:59.621Z,1.42
2023-04-16T10:34:28.892Z,2.05
2023-04-16T10:36:56.471Z,1.60
2023-04-16T10:39:27.176Z,1.75
2023-04-16T10:42:09.487Z,1.83
2023-04-16T10:44:37.594Z,2.25
2023-04-16T10:47:11.948Z,1.98
2023-04-16T10:49:40.799Z,1.90
2023-04-16T10:52:10.060Z,1.70
2023-04-16T10:54:37.996Z,1.58
2023-04-16T10:57:07.568Z,1.92
2023-04-16T10:59:36.984Z,2.00
2023-04-16T11:02:09.852Z,2.42
2023-04-16T11:04:39.581Z,1.60
2023-04-16T11:07:14.686Z,1.80
2023-04-16T11:09:54.325Z,2.58
2023-04-16T11:12:23.466Z,1.90
2023-04-16T11:14:54.490Z,1.92
2023-04-16T11:17:22.476Z,1.83
2023-04-16T11:19:50.932Z,2.00
2023-04-16T11:22:21.334Z,2.00
2023-04-16T11:24:55.432Z,2.25
2023-04-16T11:27:26.416Z,2.70
2023-04-16T11:30:02.393Z,2.38
2023-04-16T11:32:38.193Z,2.83
2023-04-16T11:35:15.838Z,1.90
2023-04-16T11:37:43.612Z,1.80
2023-04-16T11:40:11.491Z,2.17
2023-04-16T11:42:41.398Z,2.08
2023-04-16T11:45:11.047Z,2.30
2023-04-16T11:47:55.493Z,2.28
2023-04-16T11:50:28.295Z,2.22
2023-04-16T11:52:57.703Z,1.88
2023-04-16T11:55:25.492Z,2.05
2023-04-16T11:57:53.085Z,1.80
2023-04-16T12:00:23.968Z,2.25
2023-04-16T12:02:54.947Z,2.33
2023-04-16T12:05:38.680Z,2.30
2023-04-16T12:08:08.212Z,1.90
2023-04-16T12:10:55.998Z,2.15
2023-04-16T12:13:23.571Z,2.42
2023-04-16T12:15:52.699Z,2.10
2023-04-16T12:18:23.014Z,2.53
2023-04-16T12:20:53.585Z,2.42
2023-04-16T12:23:25.132Z,2.13
2023-04-16T12:25:53.259Z,2.40
2023-04-16T12:28:47.238Z,2.70
2023-04-16T12:31:15.802Z,2.70
2023-04-16T12:33:43.438Z,2.92
2023-04-16T12:36:20.890Z,2.92
2023-04-16T12:38:48.491Z,2.55
2023-04-16T12:41:15.952Z,2.92
2023-04-16T12:43:43.522Z,2.78
2023-04-16T12:46:11.115Z,2.75
2023-04-16T12:48:38.648Z,2.63
2023-04-16T12:51:06.546Z,3.10
2023-04-16T12:53:34.619Z,3.28
2023-04-16T12:56:02.327Z,3.10
2023-04-16T12:58:29.820Z,2.67
2023-04-16T13:00:57.519Z,2.50
2023-04-16T13:03:25.233Z,3.05
2023-04-16T13:05:52.926Z,2.90
2023-04-16T13:08:20.687Z,2.58
2023-04-16T13:10:48.258Z,2.58
2023-04-16T13:13:16.546Z,3.28
2023-04-16T13:15:44.154Z,3.42
2023-04-16T13:18:11.672Z,3.20
2023-04-16T13:20:39.353Z,2.65
2023-04-16T13:23:07.413Z,3.05
2023-04-16T13:25:35.443Z,3.15
2023-04-16T13:28:03.055Z,3.33
2023-04-16T13:30:31.738Z,3.88
2023-04-16T13:32:59.539Z,3.42
2023-04-16T13:35:27.477Z,2.80
2023-04-16T13:37:55.264Z,3.63
2023-04-16T13:40:22.836Z,4.05
2023-04-16T13:42:50.431Z,3.60
2023-04-16T13:45:19.038Z,3.22
2023-04-16T13:47:46.931Z,2.90
2023-04-16T13:50:14.529Z,3.22
2023-04-16T13:52:42.080Z,3.67
2023-04-16T13:55:09.960Z,3.78
2023-04-16T13:57:37.543Z,3.78
2023-04-16T14:00:05.609Z,3.90
2023-04-16T14:02:33.313Z,3.88
2023-04-16T14:05:01.082Z,3.40
2023-04-16T14:07:29.227Z,4.35
2023-04-16T14:09:56.716Z,4.47
2023-04-16T14:12:24.406Z,4.00
2023-04-16T14:14:51.919Z,3.70
2023-04-16T14:17:19.560Z,3.65
2023-04-16T14:19:47.196Z,4.05
2023-04-16T14:22:17.757Z,4.25
2023-04-16T14:24:46.499Z,3.67
2023-04-16T14:27:14.169Z,3.65
2023-04-16T14:29:41.712Z,3.67
2023-04-16T14:32:09.317Z,3.97
2023-04-16T14:34:37.063Z,3.50
2023-04-16T14:37:05.678Z,3.92
2023-04-16T14:39:33.173Z,3.15
2023-04-16T14:42:00.745Z,3.30
2023-04-16T14:44:28.235Z,3.45
2023-04-16T14:46:55.878Z,3.58
2023-04-16T14:49:23.459Z,3.85
2023-04-16T14:51:52.328Z,3.35
2023-04-16T14:54:20.547Z,3.58
2023-04-16T14:56:48.193Z,3.67
2023-04-16T14:59:15.771Z,3.20
2023-04-16T15:01:43.437Z,4.10
2023-04-16T15:04:11.358Z,4.05
2023-04-16T15:06:39.284Z,3.95
2023-04-16T15:09:08.160Z,3.60
2023-04-16T15:11:35.874Z,4.00
2023-04-16T15:14:03.377Z,3.65
2023-04-16T15:16:31.036Z,3.40
2023-04-16T15:18:59.172Z,3.85
2023-04-16T15:21:27.967Z,3.50
2023-04-16T15:23:55.472Z,3.95
2023-04-16T15:26:23.193Z,3.38
2023-04-16T15:28:50.663Z,3.83
2023-04-16T15:31:20.765Z,4.78
2023-04-16T15:33:49.148Z,3.42
2023-04-16T15:36:16.645Z,4.57
2023-04-16T15:38:44.122Z,3.78
2023-04-16T15:41:11.796Z,3.83
2023-04-16T15:43:39.339Z,3.92
2023-04-16T15:46:08.744Z,3.30
2023-04-16T15:48:36.417Z,3.85
2023-04-16T15:51:04.118Z,4.07
2023-04-16T15:53:31.689Z,4.40
2023-04-16T15:55:59.952Z,3.60
2023-04-16T15:58:27.551Z,4.18
2023-04-16T16:00:55.101Z,3.88
2023-04-16T16:03:22.787Z,3.55
2023-04-16T16:05:50.669Z,3.60
2023-04-16T16:08:18.528Z,3.97
2023-04-16T16:10:46.780Z,4.00
2023-04-16T16:13:18.026Z,3.60
2023-04-16T16:15:45.633Z,3.80
2023-04-16T16:18:13.180Z,3.75
2023-04-16T16:20:41.032Z,4.82
2023-04-16T16:23:08.624Z,4.28
2023-04-16T16:25:36.278Z,3.60
2023-04-16T16:28:06.654Z,4.00
2023-04-16T16:30:34.507Z,4.53
2023-04-16T16:33:02.164Z,5.00
2023-04-16T16:35:29.832Z,4.18
2023-04-16T16:37:58.658Z,4.22
2023-04-16T16:40:26.173Z,4.68
2023-04-16T16:42:53.732Z,4.57
2023-04-16T16:45:21.455Z,5.55
2023-04-16T16:47:49.124Z,5.65
2023-04-16T16:50:16.939Z,3.92
2023-04-16T16:52:44.849Z,4.05
2023-04-16T16:55:12.402Z,4.20
2023-04-16T16:57:39.991Z,4.50
2023-04-16T17:00:14.881Z,4.13
2023-04-16T17:02:43.082Z,4.65
2023-04-16T17:05:11.005Z,4.00
2023-04-16T17:07:39.119Z,4.43
2023-04-16T17:10:07.378Z,3.50
2023-04-16T17:12:35.713Z,4.35
2023-04-16T17:15:03.830Z,4.15
2023-04-16T17:17:32.581Z,3.25
2023-04-16T17:20:01.152Z,3.28
2023-04-16T17:22:28.801Z,3.30
2023-04-16T17:24:57.139Z,3.95
2023-04-16T17:27:24.731Z,3.80
2023-04-16T17:29:53.191Z,3.47
2023-04-16T17:32:20.923Z,3.25
2023-04-16T17:34:48.489Z,4.13
2023-04-16T17:37:16.036Z,4.07
2023-04-16T17:39:43.608Z,3.50
2023-04-16T17:42:11.142Z,3.45
2023-04-16T17:44:38.646Z,3.63
2023-04-16T17:47:06.309Z,3.60
2023-04-16T17:49:33.812Z,3.13
2023-04-16T17:52:01.331Z,3.72
2023-04-16T17:54:28.855Z,3.38
2023-04-16T17:56:57.631Z,4.07
2023-04-16T17:59:25.367Z,4.28
2023-04-16T18:01:53.031Z,3.63
2023-04-16T18:04:20.739Z,3.80
2023-04-16T18:06:48.560Z,3.65
2023-04-16T18:09:16.182Z,4.40
2023-04-16T18:11:43.960Z,3.33
2023-04-16T18:14:14.087Z,3.67
2023-04-16T18:16:42.086Z,3.65
2023-04-16T18:19:09.624Z,3.92
2023-04-16T18:21:37.195Z,3.88
2023-04-16T18:24:05.381Z,3.80
2023-04-16T18:26:35.692Z,4.65
2023-04-16T18:29:04.151Z,4.30
2023-04-16T18:31:32.000Z,4.18
2023-04-16T18:33:59.756Z,4.15
2023-04-16T18:36:27.559Z,4.25
2023-04-16T18:39:02.142Z,3.85
2023-04-16T18:41:31.151Z,5.07
2023-04-16T18:43:58.760Z,3.85
2023-04-16T18:46:27.541Z,3.67
2023-04-16T18:48:55.505Z,4.07
2023-04-16T18:51:23.327Z,3.53
2023-04-16T18:53:51.322Z,3.78
2023-04-16T18:56:18.975Z,10.40
2023-04-16T18:58:47.833Z,3.53
2023-04-16T19:01:16.696Z,3.45
2023-04-16T19:03:44.421Z,3.22
2023-04-16T19:06:12.078Z,3.92
2023-04-16T19:08:39.694Z,4.75
2023-04-16T19:11:07.501Z,3.30
2023-04-16T19:13:35.390Z,3.95
2023-04-16T19:16:04.939Z,4.53
2023-04-16T19:18:32.768Z,4.55
2023-04-16T19:21:01.401Z,4.15
2023-04-16T19:23:29.420Z,4.68
2023-04-16T19:25:57.324Z,4.13
2023-04-16T19:28:25.484Z,4.57
2023-04-16T19:30:53.858Z,3.33
2023-04-16T19:33:21.542Z,3.45
2023-04-16T19:35:49.266Z,3.35
2023-04-16T19:38:16.847Z,3.75
2023-04-16T19:40:46.670Z,3.80
2023-04-16T19:43:15.006Z,3.45
2023-04-16T19:45:46.856Z,3.95
2023-04-16T19:48:14.977Z,3.47
2023-04-16T19:50:43.005Z,3.33
2023-04-16T19:53:11.649Z,3.45
2023-04-16T19:55:40.285Z,4.00
2023-04-16T19:58:08.950Z,3.70
2023-04-16T20:00:38.070Z,3.85
2023-04-16T20:03:06.531Z,3.17
2023-04-16T20:05:34.224Z,3.67
2023-04-16T20:08:01.839Z,3.28
2023-04-16T20:10:31.534Z,3.30
2023-04-16T20:12:59.480Z,3.30
2023-04-16T20:15:27.383Z,3.90
2023-04-16T20:17:56.293Z,3.40
2023-04-16T20:20:24.299Z,3.80
2023-04-16T20:22:51.974Z,3.25
2023-04-16T20:25:19.774Z,3.00
2023-04-16T20:27:47.888Z,3.03
2023-04-16T20:30:15.686Z,3.10
2023-04-16T20:32:43.544Z,3.15
2023-04-16T20:35:11.643Z,3.15
2023-04-16T20:37:42.009Z,3.08
2023-04-16T20:40:10.740Z,3.50
2023-04-16T20:42:38.432Z,3.38
2023-04-16T20:45:07.261Z,3.78
2023-04-16T20:47:35.015Z,4.10
2023-04-16T20:50:03.734Z,4.00
2023-04-16T20:52:31.308Z,5.20
2023-04-16T20:54:58.811Z,3.13
2023-04-16T20:57:32.064Z,3.35
2023-04-16T20:59:59.776Z,3.17
2023-04-16T21:02:28.377Z,3.17
2023-04-16T21:04:56.208Z,3.05
2023-04-16T21:07:23.769Z,3.92
2023-04-16T21:09:51.257Z,3.65
2023-04-16T21:12:19.158Z,4.07
2023-04-16T21:14:46.727Z,4.20
2023-04-16T21:17:14.328Z,4.50
2023-04-16T21:19:41.841Z,4.90
2023-04-16T21:22:09.535Z,4.57
2023-04-16T21:24:37.068Z,3.70
2023-04-16T21:27:04.588Z,3.40
2023-04-16T21:29:32.772Z,3.92
2023-04-16T21:32:00.328Z,3.95
2023-04-16T21:34:27.897Z,4.60
2023-04-16T21:36:55.495Z,4.82
2023-04-16T21:39:24.454Z,4.70
2023-04-16T21:41:51.972Z,4.22
2023-04-16T21:44:21.119Z,4.80
2023-04-16T21:46:48.679Z,4.65
2023-04-16T21:49:16.379Z,4.95
2023-04-16T21:51:46.055Z,4.88
2023-04-16T21:54:13.674Z,5.38
2023-04-16T21:56:41.180Z,5.20
2023-04-16T21:59:08.832Z,5.28
2023-04-16T22:01:36.671Z,5.20
2023-04-16T22:04:05.044Z,5.53
2023-04-16T22:06:32.627Z,5.63
2023-04-16T22:09:00.125Z,6.10
2023-04-16T22:11:27.748Z,5.65
2023-04-16T22:13:57.812Z,5.90
2023-04-16T22:16:25.808Z,7.07
2023-04-16T22:18:54.973Z,7.38
2023-04-16T22:21:22.657Z,6.10
2023-04-16T22:23:50.226Z,5.90
2023-04-16T22:26:17.784Z,6.28
2023-04-16T22:28:45.507Z,6.70
2023-04-16T22:31:13.093Z,7.22
2023-04-16T22:33:40.786Z,6.38
2023-04-16T22:36:08.601Z,7.00
2023-04-16T22:38:36.988Z,6.10
2023-04-16T22:41:04.762Z,6.63
2023-04-16T22:43:32.306Z,6.53
2023-04-16T22:46:07.032Z,7.03
2023-04-16T22:48:36.543Z,7.68
2023-04-16T22:51:05.621Z,7.22
2023-04-16T22:53:33.242Z,6.72
2023-04-16T22:56:00.839Z,7.03
2023-04-16T22:58:28.351Z,7.97
2023-04-16T23:00:59.413Z,6.75
2023-04-16T23:03:27.516Z,6.57
2023-04-16T23:05:55.132Z,6.68
2023-04-16T23:08:22.649Z,8.57
2023-04-16T23:10:50.431Z,7.43
2023-04-16T23:13:17.992Z,7.20
2023-04-16T23:15:47.325Z,6.93
2023-04-16T23:18:15.393Z,7.38
2023-04-16T23:20:43.064Z,9.00
2023-04-16T23:23:10.676Z,7.40
2023-04-16T23:25:40.630Z,8.48
2023-04-16T23:28:08.172Z,8.70
2023-04-16T23:30:35.791Z,9.18
2023-04-16T23:33:04.507Z,8.85
2023-04-16T23:35:32.058Z,9.57
2023-04-16T23:37:59.600Z,9.13
2023-04-16T23:40:27.130Z,9.93
2023-04-16T23:42:54.634Z,11.60
2023-04-16T23:45:22.193Z,10.68
2023-04-16T23:47:50.841Z,9.60
2023-04-16T23:50:18.374Z,10.82
2023-04-16T23:52:45.940Z,11.27
2023-04-16T23:55:15.438Z,10.60
2023-04-16T23:57:42.943Z,11.82
